createdAt,value
2022-08-12T00:00:15.564Z,94962.16
2022-08-12T00:03:01.427Z,94965.25
2022-08-12T00:06:00.393Z,94967.16
2022-08-12T00:08:51.680Z,94973.38
2022-08-12T00:11:37.442Z,94962.13
2022-08-12T00:14:23.014Z,94970.72
2022-08-12T00:19:47.157Z,94969.34
2022-08-12T00:22:33.169Z,94965.34
2022-08-12T00:25:19.256Z,94968.56
2022-08-12T00:28:05.694Z,94972.06
2022-08-12T00:30:52.824Z,94971.22
2022-08-12T00:33:51.571Z,94969.88
2022-08-12T00:42:59.886Z,94968.28
2022-08-12T00:45:49.121Z,94977.34
2022-08-12T00:48:17.424Z,94968.50
2022-08-12T00:50:47.683Z,94968.22
2022-08-12T00:53:16.923Z,94965.84
2022-08-12T00:55:47.499Z,94968.22
2022-08-12T00:58:21.631Z,94966.34
2022-08-12T01:06:07.507Z,94970.84
2022-08-12T01:08:53.080Z,94959.06
2022-08-12T01:11:30.354Z,94968.13
2022-08-12T01:14:00.848Z,94973.47
2022-08-12T01:16:28.802Z,94968.91
2022-08-12T01:18:57.468Z,94975.06
2022-08-12T01:30:01.766Z,94967.06
2022-08-12T01:32:36.976Z,94970.28
2022-08-12T01:35:07.989Z,94970.03
2022-08-12T01:37:45.386Z,94964.97
2022-08-12T01:40:33.689Z,94967.91
2022-08-12T01:43:07.267Z,94964.09
2022-08-12T01:45:43.345Z,94965.41
2022-08-12T01:53:20.162Z,94969.03
2022-08-12T01:55:48.337Z,94964.16
2022-08-12T01:58:24.437Z,94969.50
2022-08-12T02:00:58.620Z,94966.50
2022-08-12T02:04:16.881Z,94960.63
2022-08-12T02:07:10.930Z,94962.53
2022-08-12T02:15:12.806Z,94960.91
2022-08-12T02:18:02.620Z,94957.63
2022-08-12T02:20:51.784Z,94953.31
2022-08-12T02:23:26.251Z,94954.34
2022-08-12T02:25:58.757Z,94958.50
2022-08-12T02:28:26.860Z,94957.28
2022-08-12T02:33:41.022Z,94954.41
2022-08-12T02:36:08.683Z,94957.09
2022-08-12T02:38:36.789Z,94957.25
2022-08-12T02:41:06.414Z,94968.69
2022-08-12T02:43:37.882Z,94965.47
2022-08-12T02:46:13.726Z,94959.75
2022-08-12T02:48:46.766Z,94958.84
2022-08-12T02:55:51.299Z,94957.03
2022-08-12T02:58:19.837Z,94950.13
2022-08-12T03:00:48.812Z,94963.91
2022-08-12T03:03:19.235Z,94960.56
2022-08-12T03:05:52.487Z,94965.00
2022-08-12T03:08:31.446Z,94961.97
2022-08-12T03:11:14.270Z,94960.28
2022-08-12T03:18:46.503Z,94965.72
2022-08-12T03:21:17.385Z,94959.56
2022-08-12T03:24:07.808Z,94965.72
2022-08-12T03:26:36.659Z,94969.69
2022-08-12T03:29:06.246Z,94970.47
2022-08-12T03:31:34.018Z,94966.63
2022-08-12T03:34:04.417Z,94968.91
2022-08-12T03:41:42.490Z,94976.66
2022-08-12T03:44:35.426Z,94968.56
2022-08-12T03:47:25.734Z,94971.53
2022-08-12T03:50:12.526Z,94973.31
2022-08-12T03:52:58.051Z,94969.81
2022-08-12T03:55:43.472Z,94974.38
2022-08-12T04:03:52.048Z,94975.13
2022-08-12T04:06:34.237Z,94976.41
2022-08-12T04:09:16.225Z,94977.28
2022-08-12T04:12:03.488Z,94975.91
2022-08-12T04:14:33.060Z,94973.44
2022-08-12T04:17:01.647Z,94979.97
2022-08-12T04:22:29.892Z,94984.78
2022-08-12T04:25:00.429Z,94982.38
2022-08-12T04:27:30.728Z,94982.56
2022-08-12T04:30:29.706Z,94976.41
2022-08-12T04:32:47.603Z,94978.28
2022-08-12T04:35:16.525Z,94967.22
2022-08-12T04:37:58.242Z,94971.78
2022-08-12T04:45:32.469Z,94963.19
2022-08-12T04:48:01.448Z,94966.47
2022-08-12T04:50:36.314Z,94961.78
2022-08-12T04:53:06.700Z,94961.47
2022-08-12T04:55:37.571Z,94957.66
2022-08-12T04:58:05.235Z,94958.34
2022-08-12T05:00:34.049Z,94960.44
2022-08-12T05:08:11.612Z,94966.09
2022-08-12T05:10:39.349Z,94965.00
2022-08-12T05:13:11.029Z,94967.69
2022-08-12T05:16:02.363Z,94965.00
2022-08-12T05:18:29.353Z,94963.84
2022-08-12T05:20:58.684Z,94969.50
2022-08-12T05:23:27.658Z,94966.81
2022-08-12T05:31:01.171Z,94961.25
2022-08-12T05:33:32.621Z,94967.91
2022-08-12T05:36:00.220Z,94966.25
2022-08-12T05:38:45.648Z,94974.25
2022-08-12T05:41:19.983Z,94967.56
2022-08-12T05:43:49.297Z,94962.50
2022-08-12T05:46:21.150Z,94973.44
2022-08-12T05:53:25.228Z,94966.28
2022-08-12T05:55:53.105Z,94979.69
2022-08-12T05:58:21.109Z,94971.84
2022-08-12T06:00:48.648Z,94971.53
2022-08-12T06:03:16.985Z,94978.25
2022-08-12T06:05:55.258Z,94955.66
2022-08-12T06:08:25.454Z,94970.38
2022-08-12T06:15:56.310Z,94975.50
2022-08-12T06:18:29.227Z,94971.81
2022-08-12T06:20:58.565Z,94976.19
2022-08-12T06:23:29.370Z,94975.22
2022-08-12T06:25:57.346Z,94982.09
2022-08-12T06:28:27.616Z,94976.09
2022-08-12T06:31:24.868Z,94983.44
2022-08-12T06:38:48.194Z,94982.19
2022-08-12T06:41:34.904Z,94983.09
2022-08-12T06:44:06.140Z,94972.47
2022-08-12T06:46:38.300Z,94973.34
2022-08-12T06:49:06.315Z,94966.69
2022-08-12T06:51:33.860Z,94972.22
2022-08-12T06:54:02.130Z,94982.03
2022-08-12T07:01:33.499Z,94982.19
2022-08-12T07:04:14.322Z,94985.97
2022-08-12T07:06:48.958Z,94976.53
2022-08-12T07:10:04.759Z,94980.28
2022-08-12T07:12:05.299Z,94984.88
2022-08-12T07:14:34.550Z,94988.50
2022-08-12T07:17:07.136Z,94991.66
2022-08-12T07:24:38.130Z,94990.91
2022-08-12T07:27:05.781Z,94997.53
2022-08-12T07:30:00.000Z,94994.19
2022-08-12T07:32:23.898Z,94995.97
2022-08-12T07:34:51.850Z,94995.06
2022-08-12T07:37:19.420Z,95003.78
2022-08-12T07:39:51.250Z,95008.28
2022-08-12T07:47:04.228Z,94996.47
2022-08-12T07:49:31.611Z,95000.13
2022-08-12T07:52:00.348Z,95003.00
2022-08-12T07:54:27.739Z,94997.25
2022-08-12T07:56:55.743Z,94996.97
2022-08-12T07:59:24.105Z,94991.22
2022-08-12T08:01:52.282Z,94996.97
2022-08-12T08:09:43.223Z,95003.78
2022-08-12T08:12:31.096Z,95000.91
2022-08-12T08:14:58.677Z,95006.56
2022-08-12T08:17:26.592Z,94998.00
2022-08-12T08:20:02.521Z,94991.16
2022-08-12T08:22:41.907Z,94991.78
2022-08-12T08:25:35.617Z,94990.41
2022-08-12T08:33:23.199Z,94983.28
2022-08-12T08:35:59.937Z,94982.13
2022-08-12T08:38:33.278Z,94971.44
2022-08-12T08:42:16.495Z,94975.91
2022-08-12T08:44:10.374Z,94963.56
2022-08-12T08:46:38.391Z,94970.53
2022-08-12T08:51:50.826Z,94956.22
2022-08-12T08:54:18.409Z,94959.25
2022-08-12T08:56:49.495Z,94958.13
2022-08-12T08:59:19.301Z,94955.94
2022-08-12T09:01:47.858Z,94948.34
2022-08-12T09:05:09.714Z,94948.34
2022-08-12T09:07:16.864Z,94946.97
2022-08-12T09:14:46.914Z,94942.59
2022-08-12T09:20:09.016Z,94937.97
2022-08-12T09:22:36.497Z,94947.03
2022-08-12T09:25:06.565Z,94942.88
2022-08-12T09:28:03.315Z,94942.31
2022-08-12T09:30:42.292Z,94945.53
2022-08-12T09:36:04.602Z,94943.31
2022-08-12T09:38:32.929Z,94942.25
2022-08-12T09:42:32.813Z,94936.03
2022-08-12T09:44:37.666Z,94937.44
2022-08-12T09:46:54.803Z,94942.53
2022-08-12T09:49:24.553Z,94935.84
2022-08-12T09:54:56.336Z,94933.28
2022-08-12T09:58:46.072Z,94918.34
2022-08-12T10:00:29.005Z,94919.50
2022-08-12T10:03:02.353Z,94916.84
2022-08-12T10:06:20.344Z,94916.44
2022-08-12T10:08:21.532Z,94910.53
2022-08-12T10:16:18.803Z,94910.53
2022-08-12T10:18:53.005Z,94910.88
2022-08-12T10:21:23.524Z,94905.56
2022-08-12T10:23:56.643Z,94896.66
2022-08-12T10:26:43.282Z,94896.06
2022-08-12T10:30:03.875Z,94886.84
2022-08-12T10:36:39.786Z,94882.66
2022-08-12T10:40:00.002Z,94878.19
2022-08-12T10:42:15.578Z,94871.38
2022-08-12T10:44:46.836Z,94876.34
2022-08-12T10:47:26.692Z,94863.97
2022-08-12T10:50:35.824Z,94866.41
2022-08-12T10:58:15.352Z,94854.75
2022-08-12T11:00:55.315Z,94857.50
2022-08-12T11:04:35.847Z,94852.72
2022-08-12T11:07:06.995Z,94858.41
2022-08-12T11:09:11.938Z,94844.34
2022-08-12T11:12:36.219Z,94849.09
2022-08-12T11:19:35.592Z,94832.06
2022-08-12T11:22:05.381Z,94827.19
2022-08-12T11:24:34.652Z,94826.44
2022-08-12T11:27:06.182Z,94821.97
2022-08-12T11:30:05.529Z,94828.06
2022-08-12T11:32:24.016Z,94820.06
2022-08-12T11:38:50.967Z,94823.41
2022-08-12T11:41:30.956Z,94829.50
2022-08-12T11:43:59.717Z,94828.28
2022-08-12T11:46:51.184Z,94823.41
2022-08-12T11:49:31.400Z,94822.84
2022-08-12T11:52:01.595Z,94820.91
2022-08-12T11:54:30.653Z,94827.22
2022-08-12T12:02:04.974Z,94808.41
2022-08-12T12:04:33.018Z,94808.00
2022-08-12T12:07:07.005Z,94798.59
2022-08-12T12:09:53.028Z,94809.84
2022-08-12T12:12:23.065Z,94801.84
2022-08-12T12:14:54.686Z,94795.19
2022-08-12T12:17:24.774Z,94801.25
2022-08-12T12:24:55.858Z,94799.63
2022-08-12T12:28:03.965Z,94793.84
2022-08-12T12:30:17.650Z,94785.44
2022-08-12T12:32:56.832Z,94788.16
2022-08-12T12:36:16.694Z,94781.56
2022-08-12T12:38:13.753Z,94773.16
2022-08-12T12:43:43.633Z,94773.25
2022-08-12T12:46:12.359Z,94768.47
2022-08-12T12:48:44.088Z,94760.28
2022-08-12T12:51:48.441Z,94764.47
2022-08-12T12:54:07.453Z,94752.38
2022-08-12T12:56:41.520Z,94746.81
2022-08-12T12:59:55.543Z,94744.97
2022-08-12T13:07:01.980Z,94742.28
2022-08-12T13:09:36.283Z,94736.56
2022-08-12T13:12:08.272Z,94731.47
2022-08-12T13:14:39.816Z,94729.16
2022-08-12T13:17:10.744Z,94730.78
2022-08-12T13:19:45.300Z,94715.59
2022-08-12T13:22:18.525Z,94725.25
2022-08-12T13:29:50.523Z,94716.72
2022-08-12T13:32:28.427Z,94719.44
2022-08-12T13:35:19.460Z,94708.34
2022-08-12T13:37:55.580Z,94706.91
2022-08-12T13:40:25.022Z,94707.63
2022-08-12T13:42:56.892Z,94699.72
2022-08-12T13:50:31.958Z,94707.19
2022-08-12T13:53:06.329Z,94705.59
2022-08-12T13:55:59.382Z,94708.03
2022-08-12T13:58:32.795Z,94702.59
2022-08-12T14:01:04.114Z,94701.88
2022-08-12T14:03:50.188Z,94709.00
2022-08-12T14:12:54.815Z,94702.00
2022-08-12T14:15:35.071Z,94702.38
2022-08-12T14:18:10.308Z,94701.19
2022-08-12T14:20:41.799Z,94712.53
2022-08-12T14:24:01.231Z,94711.44
2022-08-12T14:26:05.919Z,94710.25
2022-08-12T14:31:18.512Z,94706.72
2022-08-12T14:33:48.535Z,94706.28
2022-08-12T14:36:20.473Z,94706.53
2022-08-12T14:38:49.499Z,94712.72
2022-08-12T14:41:18.432Z,94712.00
2022-08-12T14:44:04.910Z,94710.41
2022-08-12T14:52:56.544Z,94713.06
2022-08-12T14:58:09.520Z,94695.81
2022-08-12T15:00:39.999Z,94700.75
2022-08-12T15:03:07.792Z,94705.25
2022-08-12T15:06:05.058Z,94694.31
2022-08-12T15:12:51.177Z,94685.75
2022-08-12T15:15:19.612Z,94682.59
2022-08-12T15:17:52.407Z,94676.72
2022-08-12T15:20:32.876Z,94680.09
2022-08-12T15:23:17.874Z,94697.97
2022-08-12T15:25:49.948Z,94683.72
2022-08-12T15:33:45.341Z,94680.31
2022-08-12T15:36:14.755Z,94685.75
2022-08-12T15:38:47.043Z,94681.44
2022-08-12T15:41:15.958Z,94692.75
2022-08-12T15:44:16.477Z,94688.91
2022-08-12T15:46:32.311Z,94686.31
2022-08-12T15:49:01.817Z,94680.44
2022-08-12T15:55:49.964Z,94672.69
2022-08-12T15:58:18.307Z,94679.19
2022-08-12T16:00:52.670Z,94683.25
2022-08-12T16:03:28.131Z,94684.31
2022-08-12T16:06:17.307Z,94692.44
2022-08-12T16:08:50.251Z,94688.69
2022-08-12T16:11:21.427Z,94690.38
2022-08-12T16:18:32.838Z,94696.72
2022-08-12T16:21:01.639Z,94699.47
2022-08-12T16:23:51.627Z,94702.13
2022-08-12T16:26:20.378Z,94707.91
2022-08-12T16:29:15.665Z,94696.94
2022-08-12T16:31:44.260Z,94701.56
2022-08-12T16:38:24.457Z,94708.72
2022-08-12T16:40:46.134Z,94705.63
2022-08-12T16:43:24.167Z,94704.03
2022-08-12T16:46:07.955Z,94711.91
2022-08-12T16:48:41.595Z,94712.84
2022-08-12T16:51:11.803Z,94704.94
2022-08-12T16:56:19.348Z,94704.13
2022-08-12T16:58:47.288Z,94704.47
2022-08-12T17:01:15.984Z,94707.84
2022-08-12T17:04:00.560Z,94709.09
2022-08-12T17:06:28.199Z,94704.09
2022-08-12T17:09:03.109Z,94704.28
2022-08-12T17:14:09.218Z,94702.78
2022-08-12T17:16:37.408Z,94715.06
2022-08-12T17:19:09.402Z,94715.41
2022-08-12T17:21:41.047Z,94715.97
2022-08-12T17:24:22.335Z,94723.50
2022-08-12T17:26:53.653Z,94723.25
2022-08-12T17:30:00.650Z,94716.16
2022-08-12T17:35:03.935Z,94716.41
2022-08-12T17:37:33.426Z,94723.63
2022-08-12T17:40:12.134Z,94723.50
2022-08-12T17:42:47.533Z,94727.34
2022-08-12T17:45:19.322Z,94725.94
2022-08-12T17:48:01.198Z,94723.75
2022-08-12T17:53:19.437Z,94721.44
2022-08-12T17:55:50.983Z,94716.97
2022-08-12T17:58:23.345Z,94721.63
2022-08-12T18:01:11.176Z,94719.72
2022-08-12T18:04:05.686Z,94738.22
2022-08-12T18:06:29.869Z,94737.72
2022-08-12T18:12:07.814Z,94739.50
2022-08-12T18:14:37.083Z,94749.69
2022-08-12T18:17:08.154Z,94751.31
2022-08-12T18:20:04.907Z,94758.94
2022-08-12T18:22:31.741Z,94762.56
2022-08-12T18:25:05.131Z,94756.09
2022-08-12T18:31:44.442Z,94759.75
2022-08-12T18:34:29.178Z,94753.28
2022-08-12T18:36:59.172Z,94749.31
2022-08-12T18:39:53.361Z,94755.47
2022-08-12T18:42:23.868Z,94751.16
2022-08-12T18:44:55.446Z,94751.03
2022-08-12T18:50:05.758Z,94749.69
2022-08-12T18:52:38.875Z,94763.97
2022-08-12T18:55:11.030Z,94759.88
2022-08-12T18:58:05.738Z,94768.06
2022-08-12T19:00:30.433Z,94772.13
2022-08-12T19:03:00.471Z,94764.88
2022-08-12T19:05:54.148Z,94765.44
2022-08-12T19:13:03.511Z,94764.69
2022-08-12T19:15:43.199Z,94760.78
2022-08-12T19:18:12.823Z,94766.63
2022-08-12T19:20:41.507Z,94760.91
2022-08-12T19:23:16.641Z,94760.25
2022-08-12T19:26:00.218Z,94767.25
2022-08-12T19:31:44.656Z,94763.47
2022-08-12T19:34:55.907Z,94757.09
2022-08-12T19:37:19.506Z,94768.06
2022-08-12T19:40:09.976Z,94766.53
2022-08-12T19:42:44.395Z,94771.22
2022-08-12T19:45:13.785Z,94762.66
2022-08-12T19:52:47.093Z,94758.47
2022-08-12T19:55:19.893Z,94755.78
2022-08-12T19:58:01.613Z,94752.34
2022-08-12T20:00:35.628Z,94751.31
2022-08-12T20:03:05.750Z,94752.41
2022-08-12T20:06:04.595Z,94758.59
2022-08-12T20:12:10.209Z,94753.41
2022-08-12T20:14:03.934Z,94741.56
2022-08-12T20:16:52.753Z,94750.78
2022-08-12T20:19:53.095Z,94747.22
2022-08-12T20:22:14.886Z,94754.25
2022-08-12T20:24:51.379Z,94757.59
2022-08-12T20:32:29.846Z,94751.03
2022-08-12T20:35:10.092Z,94748.13
2022-08-12T20:38:06.641Z,94750.81
2022-08-12T20:40:26.386Z,94747.13
2022-08-12T20:42:56.663Z,94749.59
2022-08-12T20:45:25.957Z,94745.63
2022-08-12T20:53:18.920Z,94746.31
2022-08-12T20:56:19.645Z,94744.91
2022-08-12T20:58:49.299Z,94744.03
2022-08-12T21:01:20.835Z,94744.47
2022-08-12T21:04:11.716Z,94742.19
2022-08-12T21:06:57.366Z,94742.19
2022-08-12T21:14:53.261Z,94757.94
2022-08-12T21:17:21.851Z,94753.88
2022-08-12T21:20:22.434Z,94761.16
2022-08-12T21:22:50.345Z,94752.81
2022-08-12T21:25:18.319Z,94758.34
2022-08-12T21:27:58.540Z,94742.47
2022-08-12T21:33:17.997Z,94739.91
2022-08-12T21:35:50.083Z,94740.53
2022-08-12T21:38:17.913Z,94738.25
2022-08-12T21:40:51.572Z,94737.41
2022-08-12T21:43:19.938Z,94739.19
2022-08-12T21:46:00.509Z,94736.88
2022-08-12T21:48:29.814Z,94738.78
2022-08-12T21:56:00.419Z,94723.06
2022-08-12T21:58:28.277Z,94727.63
2022-08-12T22:00:57.730Z,94729.13
2022-08-12T22:04:03.289Z,94724.75
2022-08-12T22:06:43.273Z,94718.06
2022-08-12T22:09:16.269Z,94721.16
2022-08-12T22:15:27.583Z,94702.25
2022-08-12T22:17:57.144Z,94708.41
2022-08-12T22:20:29.550Z,94715.94
2022-08-12T22:22:59.078Z,94713.03
2022-08-12T22:25:28.069Z,94702.91
2022-08-12T22:28:13.944Z,94704.34
2022-08-12T22:34:29.721Z,94694.84
2022-08-12T22:37:02.031Z,94691.66
2022-08-12T22:39:29.609Z,94688.19
2022-08-12T22:42:19.795Z,94685.59
2022-08-12T22:45:05.714Z,94681.06
2022-08-12T22:47:54.174Z,94680.47
2022-08-12T22:53:20.404Z,94679.78
2022-08-12T22:56:05.921Z,94683.66
2022-08-12T22:58:40.417Z,94677.81
2022-08-12T23:01:11.076Z,94675.53
2022-08-12T23:03:49.369Z,94677.50
2022-08-12T23:06:19.713Z,94682.97
2022-08-12T23:08:49.782Z,94680.50
2022-08-12T23:15:47.542Z,94673.97
2022-08-12T23:18:17.552Z,94672.25
2022-08-12T23:20:45.397Z,94679.41
2022-08-12T23:23:17.848Z,94668.66
2022-08-12T23:25:55.593Z,94670.38
2022-08-12T23:28:42.342Z,94668.38
2022-08-12T23:31:11.007Z,94665.91
2022-08-12T23:38:42.259Z,94653.28
2022-08-12T23:41:13.323Z,94659.03
2022-08-12T23:43:48.663Z,94650.72
2022-08-12T23:46:18.438Z,94647.25
2022-08-12T23:48:47.952Z,94638.34
2022-08-12T23:51:23.438Z,94640.03
2022-08-12T23:53:55.755Z,94641.75
2022-08-12T23:59:01.825Z,94639.44
